Time,TemperatureF,DewpointF,PressureIn,WindDirection,WindDirectionDegrees,WindSpeedMPH,WindSpeedGustMPH,Humidity,HourlyPrecipIn,Conditions,Clouds,dailyrainin,SoftwareType,DateUTC
2013-11-27 00:03:00,73.0,72.7,29.60,SSE,157,3.2,-999.0,99,-99.99,,,0.00,Acu-Link.com,2013-11-27 05:03:00,
2013-11-27 00:18:00,73.2,72.9,29.60,SW,225,5.8,-999.0,99,-99.99,,,0.00,Acu-Link.com,2013-11-27 05:18:00,
2013-11-27 00:33:00,73.4,73.1,29.59,South,180,4.7,-999.0,99,-99.99,,,0.00,Acu-Link.com,2013-11-27 05:33:00,
2013-11-27 00:48:00,73.6,73.3,29.60,South,180,6.3,-999.0,99,-99.99,,,0.00,Acu-Link.com,2013-11-27 05:48:00,
2013-11-27 01:03:00,73.8,73.5,29.60,WSW,247,8.9,-999.0,99,-99.99,,,0.00,Acu-Link.com,2013-11-27 06:03:00,
2013-11-27 01:19:00,73.8,73.5,29.60,WSW,247,2.2,-999.0,99,-99.99,,,0.01,Acu-Link.com,2013-11-27 06:19:00,
2013-11-27 01:34:00,73.8,73.5,29.60,WSW,247,3.2,-999.0,99,-99.99,,,0.01,Acu-Link.com,2013-11-27 06:34:00,
2013-11-27 01:49:00,73.8,73.5,29.59,SW,225,5.3,-999.0,99,-99.99,,,0.01,Acu-Link.com,2013-11-27 06:49:00,
2013-11-27 02:04:00,73.4,73.1,29.59,South,180,3.2,-999.0,99,-99.99,,,0.01,Acu-Link.com,2013-11-27 07:04:00,
2013-11-27 02:19:00,73.2,72.9,29.59,West,270,4.7,-999.0,99,-99.99,,,0.01,Acu-Link.com,2013-11-27 07:19:00,
2013-11-27 02:34:00,73.2,72.9,29.58,SW,225,2.7,-999.0,99,-99.99,,,0.02,Acu-Link.com,2013-11-27 07:34:00,
2013-11-27 02:50:00,73.0,72.7,29.58,SSE,157,1.7,-999.0,99,-99.99,,,0.03,Acu-Link.com,2013-11-27 07:50:00,
2013-11-27 03:05:00,73.0,72.7,29.58,West,270,5.8,-999.0,99,-99.99,,,0.03,Acu-Link.com,2013-11-27 08:05:00,
2013-11-27 03:20:00,73.0,72.7,29.57,SSW,202,1.1,-999.0,99,-99.99,,,0.05,Acu-Link.com,2013-11-27 08:20:00,
2013-11-27 03:35:00,73.0,72.7,29.56,West,270,2.2,-999.0,99,-99.99,,,0.06,Acu-Link.com,2013-11-27 08:35:00,
2013-11-27 03:50:00,73.0,72.7,29.57,South,180,3.2,-999.0,99,-99.99,,,0.08,Acu-Link.com,2013-11-27 08:50:00,
2013-11-27 04:06:00,72.9,72.6,29.56,West,270,1.7,-999.0,99,-99.99,,,0.09,Acu-Link.com,2013-11-27 09:06:00,
2013-11-27 04:21:00,72.7,72.4,29.56,West,270,6.3,-999.0,99,-99.99,,,0.09,Acu-Link.com,2013-11-27 09:21:00,
2013-11-27 04:36:00,72.3,72.0,29.56,SE,135,5.8,-999.0,99,-99.99,,,0.10,Acu-Link.com,2013-11-27 09:36:00,
2013-11-27 04:51:00,71.8,71.5,29.56,SW,225,5.8,-999.0,99,-99.99,,,0.10,Acu-Link.com,2013-11-27 09:51:00,
2013-11-27 05:06:00,71.4,71.1,29.56,SSW,202,4.2,-999.0,99,-99.99,,,0.10,Acu-Link.com,2013-11-27 10:06:00,
2013-11-27 05:21:00,71.4,71.1,29.56,SW,225,2.7,-999.0,99,-99.99,,,0.10,Acu-Link.com,2013-11-27 10:21:00,
2013-11-27 05:36:00,71.2,70.9,29.58,South,180,5.8,-999.0,99,-99.99,,,0.10,Acu-Link.com,2013-11-27 10:36:00,
2013-11-27 05:52:00,71.2,70.9,29.57,SSE,157,4.7,-999.0,99,-99.99,,,0.10,Acu-Link.com,2013-11-27 10:52:00,
2013-11-27 06:07:00,71.4,71.1,29.59,West,270,4.2,-999.0,99,-99.99,,,0.10,Acu-Link.com,2013-11-27 11:07:00,
2013-11-27 06:22:00,70.3,69.4,29.60,WNW,292,5.8,-999.0,97,-99.99,,,0.10,Acu-Link.com,2013-11-27 11:22:00,
2013-11-27 06:38:00,70.3,69.1,29.61,NNW,337,4.2,-999.0,96,-99.99,,,0.10,Acu-Link.com,2013-11-27 11:38:00,
2013-11-27 06:53:00,70.3,69.1,29.62,North,0,5.3,-999.0,96,-99.99,,,0.10,Acu-Link.com,2013-11-27 11:53:00,
2013-11-27 07:08:00,70.2,68.7,29.62,WSW,247,1.7,-999.0,95,-99.99,,,0.10,Acu-Link.com,2013-11-27 12:08:00,
2013-11-27 07:23:00,70.0,68.2,29.63,North,0,4.7,-999.0,94,-99.99,,,0.10,Acu-Link.com,2013-11-27 12:23:00,
2013-11-27 07:38:00,70.0,67.9,29.64,WNW,292,6.8,-999.0,93,-99.99,,,0.10,Acu-Link.com,2013-11-27 12:38:00,
2013-11-27 07:53:00,69.8,67.7,29.63,South,180,3.2,-999.0,93,-99.99,,,0.10,Acu-Link.com,2013-11-27 12:53:00,
2013-11-27 08:09:00,69.8,67.7,29.64,SW,225,4.2,-999.0,93,-99.99,,,0.10,Acu-Link.com,2013-11-27 13:09:00,
2013-11-27 08:24:00,70.2,67.4,29.64,WNW,292,4.7,-999.0,91,-99.99,,,0.10,Acu-Link.com,2013-11-27 13:24:00,
2013-11-27 08:39:00,70.5,67.1,29.66,West,270,4.7,-999.0,89,-99.99,,,0.10,Acu-Link.com,2013-11-27 13:39:00,
2013-11-27 08:54:00,71.1,67.4,29.66,NW,315,5.8,-999.0,88,-99.99,,,0.10,Acu-Link.com,2013-11-27 13:54:00,
2013-11-27 09:09:00,71.1,66.7,29.68,West,270,5.3,-999.0,86,-99.99,,,0.10,Acu-Link.com,2013-11-27 14:09:00,
2013-11-27 09:24:00,72.3,65.8,29.69,SW,225,5.3,-999.0,80,-99.99,,,0.10,Acu-Link.com,2013-11-27 14:24:00,
2013-11-27 09:39:00,72.5,64.5,29.68,WNW,292,15.0,-999.0,76,-99.99,,,0.11,Acu-Link.com,2013-11-27 14:39:00,
2013-11-27 09:54:00,72.5,64.9,29.70,WNW,292,11.9,-999.0,77,-99.99,,,0.11,Acu-Link.com,2013-11-27 14:54:00,
2013-11-27 10:10:00,69.3,62.1,29.72,WNW,292,11.4,-999.0,78,-99.99,,,0.11,Acu-Link.com,2013-11-27 15:10:00,
2013-11-27 10:25:00,68.9,61.7,29.71,NNE,22,4.7,-999.0,78,-99.99,,,0.11,Acu-Link.com,2013-11-27 15:25:00,
2013-11-27 10:40:00,68.7,61.6,29.72,SW,225,4.2,-999.0,78,-99.99,,,0.11,Acu-Link.com,2013-11-27 15:40:00,
2013-11-27 10:55:00,70.7,61.2,29.72,NNW,337,7.3,-999.0,72,-99.99,,,0.11,Acu-Link.com,2013-11-27 15:55:00,
2013-11-27 11:10:00,71.4,60.7,29.72,NNE,22,3.2,-999.0,69,-99.99,,,0.11,Acu-Link.com,2013-11-27 16:10:00,
2013-11-27 11:26:00,70.5,60.2,29.72,West,270,7.3,-999.0,70,-99.99,,,0.11,Acu-Link.com,2013-11-27 16:26:00,
2013-11-27 11:41:00,72.5,61.7,29.71,West,270,6.3,-999.0,69,-99.99,,,0.11,Acu-Link.com,2013-11-27 16:41:00,
2013-11-27 11:56:00,73.2,61.1,29.72,NW,315,4.7,-999.0,66,-99.99,,,0.11,Acu-Link.com,2013-11-27 16:56:00,
2013-11-27 12:11:00,71.4,60.3,29.70,WNW,292,5.3,-999.0,68,-99.99,,,0.11,Acu-Link.com,2013-11-27 17:11:00,
2013-11-27 12:26:00,72.0,59.6,29.71,NW,315,13.5,-999.0,65,-99.99,,,0.11,Acu-Link.com,2013-11-27 17:26:00,
2013-11-27 12:41:00,70.9,59.0,29.71,NW,315,13.0,-999.0,66,-99.99,,,0.11,Acu-Link.com,2013-11-27 17:41:00,
2013-11-27 12:56:00,70.9,59.4,29.71,West,270,5.3,-999.0,67,-99.99,,,0.11,Acu-Link.com,2013-11-27 17:56:00,
2013-11-27 13:12:00,71.4,59.4,29.71,NNE,22,8.9,-999.0,66,-99.99,,,0.11,Acu-Link.com,2013-11-27 18:12:00,
2013-11-27 13:27:00,70.7,58.3,29.71,WNW,292,11.9,-999.0,65,-99.99,,,0.11,Acu-Link.com,2013-11-27 18:27:00,
2013-11-27 13:42:00,74.1,59.3,29.71,WSW,247,14.5,-999.0,60,-99.99,,,0.11,Acu-Link.com,2013-11-27 18:42:00,
2013-11-27 13:57:00,74.3,58.6,29.71,West,270,5.3,-999.0,58,-99.99,,,0.11,Acu-Link.com,2013-11-27 18:57:00,
2013-11-27 14:12:00,73.6,58.8,29.71,NW,315,9.4,-999.0,60,-99.99,,,0.11,Acu-Link.com,2013-11-27 19:12:00,
2013-11-27 14:27:00,73.4,58.7,29.70,WSW,247,3.7,-999.0,60,-99.99,,,0.11,Acu-Link.com,2013-11-27 19:27:00,
2013-11-27 14:42:00,73.8,58.1,29.70,West,270,5.3,-999.0,58,-99.99,,,0.11,Acu-Link.com,2013-11-27 19:42:00,
2013-11-27 14:58:00,73.4,57.7,29.70,ENE,67,9.9,-999.0,58,-99.99,,,0.11,Acu-Link.com,2013-11-27 19:58:00,
2013-11-27 15:13:00,73.2,57.0,29.72,NW,315,9.9,-999.0,57,-99.99,,,0.11,Acu-Link.com,2013-11-27 20:13:00,
2013-11-27 15:28:00,73.4,57.7,29.73,SSW,202,10.9,-999.0,58,-99.99,,,0.11,Acu-Link.com,2013-11-27 20:28:00,
2013-11-27 15:43:00,72.1,56.0,29.74,NNW,337,11.9,-999.0,57,-99.99,,,0.11,Acu-Link.com,2013-11-27 20:43:00,
2013-11-27 15:58:00,71.1,57.0,29.75,NNW,337,7.3,-999.0,61,-99.99,,,0.11,Acu-Link.com,2013-11-27 20:58:00,
2013-11-27 16:13:00,70.7,56.6,29.75,NW,315,6.3,-999.0,61,-99.99,,,0.11,Acu-Link.com,2013-11-27 21:13:00,
2013-11-27 16:28:00,69.4,56.2,29.76,WNW,292,12.5,-999.0,63,-99.99,,,0.11,Acu-Link.com,2013-11-27 21:28:00,
2013-11-27 16:43:00,69.1,56.4,29.77,West,270,6.3,-999.0,64,-99.99,,,0.11,Acu-Link.com,2013-11-27 21:43:00,
2013-11-27 16:59:00,66.9,55.2,29.79,NW,315,10.4,-999.0,66,-99.99,,,0.11,Acu-Link.com,2013-11-27 21:59:00,
2013-11-27 17:14:00,65.1,55.5,29.80,NW,315,5.8,-999.0,71,-99.99,,,0.11,Acu-Link.com,2013-11-27 22:14:00,
2013-11-27 17:29:00,64.6,55.4,29.81,West,270,4.2,-999.0,72,-99.99,,,0.11,Acu-Link.com,2013-11-27 22:29:00,
2013-11-27 17:44:00,63.1,54.3,29.82,West,270,4.7,-999.0,73,-99.99,,,0.11,Acu-Link.com,2013-11-27 22:44:00,
2013-11-27 17:59:00,61.5,53.5,29.84,NW,315,6.3,-999.0,75,-99.99,,,0.11,Acu-Link.com,2013-11-27 22:59:00,
2013-11-27 18:15:00,60.6,53.3,29.86,ESE,112,2.7,-999.0,77,-99.99,,,0.11,Acu-Link.com,2013-11-27 23:15:00,
2013-11-27 18:30:00,59.0,52.5,29.87,NNW,337,2.7,-999.0,79,-99.99,,,0.11,Acu-Link.com,2013-11-27 23:30:00,
2013-11-27 18:45:00,57.9,51.8,29.89,West,270,7.3,-999.0,80,-99.99,,,0.11,Acu-Link.com,2013-11-27 23:45:00,
2013-11-27 19:01:00,57.2,51.4,29.89,SW,225,5.3,-999.0,81,-99.99,,,0.11,Acu-Link.com,2013-11-28 00:01:00,
2013-11-27 19:16:00,56.3,50.5,29.90,West,270,7.3,-999.0,81,-99.99,,,0.11,Acu-Link.com,2013-11-28 00:16:00,
2013-11-27 19:31:00,56.1,50.3,29.91,WNW,292,1.7,-999.0,81,-99.99,,,0.11,Acu-Link.com,2013-11-28 00:31:00,
2013-11-27 19:46:00,55.6,49.9,29.92,West,270,3.7,-999.0,81,-99.99,,,0.11,Acu-Link.com,2013-11-28 00:46:00,
2013-11-27 20:01:00,55.2,49.8,29.93,West,270,1.7,-999.0,82,-99.99,,,0.11,Acu-Link.com,2013-11-28 01:01:00,
2013-11-27 20:16:00,54.7,50.0,29.93,West,270,0.0,-999.0,84,-99.99,,,0.11,Acu-Link.com,2013-11-28 01:16:00,
2013-11-27 20:32:00,54.1,50.0,29.94,WNW,292,2.7,-999.0,86,-99.99,,,0.11,Acu-Link.com,2013-11-28 01:32:00,
2013-11-27 20:47:00,53.6,49.2,29.95,NNW,337,0.0,-999.0,85,-99.99,,,0.11,Acu-Link.com,2013-11-28 01:47:00,
2013-11-27 21:02:00,52.9,48.5,29.96,ENE,67,1.7,-999.0,85,-99.99,,,0.11,Acu-Link.com,2013-11-28 02:02:00,
2013-11-27 21:18:00,52.3,47.9,29.97,WNW,292,0.0,-999.0,85,-99.99,,,0.11,Acu-Link.com,2013-11-28 02:18:00,
2013-11-27 21:33:00,51.8,48.1,29.97,NNW,337,0.0,-999.0,87,-99.99,,,0.11,Acu-Link.com,2013-11-28 02:33:00,
2013-11-27 21:48:00,51.4,48.0,29.98,ENE,67,2.2,-999.0,88,-99.99,,,0.11,Acu-Link.com,2013-11-28 02:48:00,
2013-11-27 22:03:00,51.1,47.4,29.98,SW,225,0.0,-999.0,87,-99.99,,,0.11,Acu-Link.com,2013-11-28 03:03:00,
2013-11-27 22:18:00,50.7,47.3,29.99,North,0,1.1,-999.0,88,-99.99,,,0.11,Acu-Link.com,2013-11-28 03:18:00,
2013-11-27 22:34:00,50.5,47.1,30.00,NNW,337,2.7,-999.0,88,-99.99,,,0.11,Acu-Link.com,2013-11-28 03:34:00,
2013-11-27 22:49:00,50.0,46.0,30.01,ENE,67,3.2,-999.0,86,-99.99,,,0.11,Acu-Link.com,2013-11-28 03:49:00,
2013-11-27 23:04:00,49.3,45.6,30.01,SSW,202,2.2,-999.0,87,-99.99,,,0.11,Acu-Link.com,2013-11-28 04:04:00,
2013-11-27 23:19:00,48.9,44.6,30.01,WNW,292,1.7,-999.0,85,-99.99,,,0.11,Acu-Link.com,2013-11-28 04:19:00,
2013-11-27 23:34:00,48.4,44.7,30.02,NNE,22,1.1,-999.0,87,-99.99,,,0.11,Acu-Link.com,2013-11-28 04:34:00,
2013-11-27 23:50:00,47.8,44.4,30.02,ESE,112,1.7,-999.0,88,-99.99,,,0.11,Acu-Link.com,2013-11-28 04:50:00,